Terminal Aerodrome Forecast
Issued by NWS

Home | Current Version | Previous Version | Text Only | Print | Product List | Glossary On
Versions: 1 2 3 4 5 6 7 8 9 10 11 12 13
400
FTUS44 KEPZ 191720
TAFLRU
TAF
KLRU 191720Z 1918/2018 20008KT P6SM SCT080
     FM192300 24008KT P6SM VCTS SCT080CB BKN200
      TEMPO 2001/2005 VRB30G45KT 3SM TSRA BKN040CB BKN100
     FM200600 VRB05KT P6SM SCT060 BKN150
     FM201600 20006KT P6SM FEW150=

USA.gov is the U.S. government's official web portal to all federal, state and local government web resources and services.